createdAt,value
2019-02-15T00:00:49.545Z,94.50
2019-02-15T00:03:18.251Z,94.20
2019-02-15T00:05:46.660Z,94.10
2019-02-15T00:08:15.006Z,94.00
2019-02-15T00:10:45.337Z,94.20
2019-02-15T00:13:13.937Z,94.10
2019-02-15T00:15:42.799Z,93.90
2019-02-15T00:18:24.647Z,93.80
2019-02-15T00:20:59.172Z,94.10
2019-02-15T00:23:28.925Z,93.80
2019-02-15T00:26:00.624Z,94.30
2019-02-15T00:28:29.093Z,94.20
2019-02-15T00:30:57.599Z,94.20
2019-02-15T00:33:25.920Z,94.30
2019-02-15T00:35:54.225Z,93.80
2019-02-15T00:38:22.550Z,94.40
2019-02-15T00:40:50.990Z,94.00
2019-02-15T00:43:22.303Z,94.30
2019-02-15T00:45:51.184Z,94.00
2019-02-15T00:48:21.236Z,94.70
2019-02-15T00:50:51.250Z,94.20
2019-02-15T00:53:27.453Z,94.20
2019-02-15T00:56:00.201Z,94.40
2019-02-15T00:58:45.273Z,94.40
2019-02-15T01:01:27.256Z,94.20
2019-02-15T01:03:57.232Z,94.50
2019-02-15T01:06:36.565Z,94.50
2019-02-15T01:09:13.507Z,94.40
2019-02-15T01:11:46.554Z,94.20
2019-02-15T01:14:14.976Z,94.60
2019-02-15T01:16:43.360Z,94.20
2019-02-15T01:19:11.853Z,94.20
2019-02-15T01:21:40.257Z,94.10
2019-02-15T01:24:08.621Z,94.30
2019-02-15T01:26:41.339Z,94.20
2019-02-15T01:29:14.277Z,94.20
2019-02-15T01:31:49.896Z,94.20
2019-02-15T01:34:25.702Z,94.10
2019-02-15T01:37:01.619Z,94.20
2019-02-15T01:39:37.217Z,94.30
2019-02-15T01:42:13.206Z,94.20
2019-02-15T01:44:43.194Z,94.30
2019-02-15T01:47:13.179Z,94.50
2019-02-15T01:49:41.578Z,94.60
2019-02-15T01:54:38.887Z,94.60
2019-02-15T01:57:07.193Z,94.70
2019-02-15T01:59:35.659Z,94.90
2019-02-15T02:02:04.052Z,95.30
2019-02-15T02:04:32.528Z,95.00
2019-02-15T02:07:00.868Z,95.20
2019-02-15T02:09:29.161Z,95.00
2019-02-15T02:11:57.566Z,95.00
2019-02-15T02:14:26.131Z,95.00
2019-02-15T02:16:54.525Z,94.90
2019-02-15T02:19:22.806Z,95.10
2019-02-15T02:21:51.348Z,95.00
2019-02-15T02:24:19.931Z,94.80
2019-02-15T02:26:48.342Z,94.90
2019-02-15T02:29:16.634Z,95.00
2019-02-15T02:31:45.046Z,95.40
2019-02-15T02:34:13.556Z,95.50
2019-02-15T02:36:49.457Z,95.40
2019-02-15T02:39:17.759Z,95.80
2019-02-15T02:41:46.178Z,96.10
2019-02-15T02:44:14.872Z,95.40
2019-02-15T02:46:43.267Z,95.40
2019-02-15T02:49:11.664Z,95.40
2019-02-15T02:51:40.065Z,95.50
2019-02-15T02:54:08.754Z,95.30
2019-02-15T02:56:37.113Z,95.50
2019-02-15T02:59:05.550Z,95.50
2019-02-15T03:01:33.903Z,95.20
2019-02-15T03:04:02.186Z,95.00
2019-02-15T03:06:30.574Z,95.20
2019-02-15T03:08:58.905Z,95.40
2019-02-15T03:11:27.450Z,95.10
2019-02-15T03:13:56.014Z,95.60
2019-02-15T03:16:24.409Z,95.40
2019-02-15T03:18:52.737Z,95.50
2019-02-15T03:21:21.086Z,95.60
2019-02-15T03:23:49.498Z,95.80
2019-02-15T03:26:17.808Z,95.70
2019-02-15T03:28:46.149Z,95.80
2019-02-15T03:31:14.610Z,95.70
2019-02-15T03:33:43.039Z,95.70
2019-02-15T03:36:13.033Z,96.30
2019-02-15T03:38:43.108Z,96.00
2019-02-15T03:41:28.681Z,95.80
2019-02-15T03:43:57.045Z,95.70
2019-02-15T03:46:26.008Z,95.50
2019-02-15T03:48:54.594Z,95.60
2019-02-15T03:51:23.000Z,95.60
2019-02-15T03:53:51.377Z,95.60
2019-02-15T03:56:19.774Z,95.80
2019-02-15T03:58:48.077Z,95.80
2019-02-15T04:01:16.748Z,95.50
2019-02-15T04:03:45.199Z,95.60
2019-02-15T04:06:13.540Z,95.80
2019-02-15T04:08:41.867Z,95.60
2019-02-15T04:11:10.277Z,95.70
2019-02-15T04:13:38.714Z,95.70
2019-02-15T04:16:07.234Z,95.70
2019-02-15T04:18:35.680Z,95.70
2019-02-15T04:21:04.086Z,95.80
2019-02-15T04:23:32.398Z,95.60
2019-02-15T04:26:00.877Z,95.80
2019-02-15T04:28:29.198Z,95.90
2019-02-15T04:30:57.536Z,95.70
2019-02-15T04:33:25.837Z,95.80
2019-02-15T04:35:54.170Z,95.70
2019-02-15T04:38:22.708Z,95.90
2019-02-15T04:40:51.052Z,95.80
2019-02-15T04:43:19.365Z,95.70
2019-02-15T04:45:48.122Z,95.80
2019-02-15T04:48:16.502Z,95.90
2019-02-15T04:50:44.937Z,96.00
2019-02-15T04:53:13.342Z,95.90
2019-02-15T04:55:41.938Z,95.70
2019-02-15T04:58:10.341Z,95.90
2019-02-15T05:00:38.642Z,95.60
2019-02-15T05:03:07.139Z,95.70
2019-02-15T05:05:35.414Z,96.00
2019-02-15T05:08:03.756Z,96.00
2019-02-15T05:10:32.475Z,96.40
2019-02-15T05:13:00.893Z,96.90
2019-02-15T05:15:29.247Z,97.40
2019-02-15T05:17:57.608Z,97.50
2019-02-15T05:20:25.949Z,97.40
2019-02-15T05:22:54.378Z,97.50
2019-02-15T05:25:22.950Z,97.80
2019-02-15T05:27:51.446Z,97.70
2019-02-15T05:30:19.871Z,98.10
2019-02-15T05:32:48.269Z,98.10
2019-02-15T05:35:16.646Z,98.00
2019-02-15T05:37:45.038Z,98.00
2019-02-15T05:40:13.411Z,98.20
2019-02-15T05:42:41.916Z,98.20
2019-02-15T05:45:10.210Z,98.10
2019-02-15T05:47:38.550Z,98.50
2019-02-15T05:50:07.496Z,98.80
2019-02-15T05:52:35.921Z,98.80
2019-02-15T05:55:05.284Z,98.40
2019-02-15T05:57:33.874Z,98.50
2019-02-15T06:00:02.428Z,98.40
2019-02-15T06:02:30.931Z,98.20
2019-02-15T06:04:59.272Z,98.50
2019-02-15T06:07:27.564Z,98.50
2019-02-15T06:09:55.897Z,98.50
2019-02-15T06:12:24.457Z,98.40
2019-02-15T06:14:52.807Z,98.60
2019-02-15T06:17:21.351Z,98.50
2019-02-15T06:19:49.765Z,98.60
2019-02-15T06:22:18.073Z,98.80
2019-02-15T06:24:46.788Z,98.60
2019-02-15T06:27:15.137Z,98.60
2019-02-15T06:29:43.556Z,98.50
2019-02-15T06:32:11.898Z,98.60
2019-02-15T06:34:40.266Z,98.70
2019-02-15T06:37:08.636Z,98.40
2019-02-15T06:39:37.027Z,98.60
2019-02-15T06:42:05.310Z,98.60
2019-02-15T06:44:33.820Z,98.80
2019-02-15T06:47:02.275Z,98.50
2019-02-15T06:49:30.614Z,98.10
2019-02-15T06:51:59.123Z,98.00
2019-02-15T06:54:27.457Z,98.30
2019-02-15T06:56:55.838Z,98.50
2019-02-15T06:59:40.767Z,98.40
2019-02-15T07:02:27.403Z,98.80
2019-02-15T07:05:00.358Z,98.60
2019-02-15T07:07:28.926Z,98.70
2019-02-15T07:09:57.205Z,98.10
2019-02-15T07:12:25.607Z,98.30
2019-02-15T07:14:53.938Z,98.40
2019-02-15T07:17:22.255Z,98.40
2019-02-15T07:19:50.646Z,98.50
2019-02-15T07:22:19.058Z,98.30
2019-02-15T07:24:47.424Z,97.90
2019-02-15T07:27:16.114Z,97.70
2019-02-15T07:29:44.733Z,97.20
2019-02-15T07:32:13.116Z,96.90
2019-02-15T07:34:41.432Z,96.60
2019-02-15T07:37:09.764Z,96.50
2019-02-15T07:39:38.231Z,96.90
2019-02-15T07:42:06.577Z,97.10
2019-02-15T07:44:34.860Z,97.10
2019-02-15T07:47:03.198Z,97.30
2019-02-15T07:49:31.497Z,97.10
2019-02-15T07:51:59.811Z,97.00
2019-02-15T07:54:28.471Z,96.90
2019-02-15T07:56:56.807Z,96.80
2019-02-15T07:59:25.277Z,96.60
2019-02-15T08:02:01.674Z,96.60
2019-02-15T08:04:23.626Z,96.60
2019-02-15T08:06:52.078Z,96.40
2019-02-15T08:09:20.618Z,96.30
2019-02-15T08:11:49.191Z,96.20
2019-02-15T08:14:17.797Z,96.20
2019-02-15T08:16:46.272Z,96.20
2019-02-15T08:19:14.767Z,96.10
2019-02-15T08:21:43.050Z,96.10
2019-02-15T08:24:11.578Z,95.70
2019-02-15T08:26:39.935Z,95.90
2019-02-15T08:29:08.325Z,95.60
2019-02-15T08:31:36.615Z,94.80
2019-02-15T08:34:05.171Z,94.00
2019-02-15T08:36:33.517Z,92.80
2019-02-15T08:39:02.016Z,91.80
2019-02-15T08:41:30.301Z,90.40
2019-02-15T08:43:58.631Z,88.00
2019-02-15T08:46:26.933Z,85.30
2019-02-15T08:48:55.330Z,85.30
2019-02-15T08:51:23.854Z,85.30
2019-02-15T08:53:52.190Z,84.90
2019-02-15T08:56:20.572Z,85.20
2019-02-15T08:58:49.885Z,84.50
2019-02-15T09:01:18.323Z,82.30
2019-02-15T09:03:46.617Z,79.30
2019-02-15T09:06:17.557Z,76.50
2019-02-15T09:08:45.864Z,74.60
2019-02-15T09:11:14.963Z,72.70
2019-02-15T09:13:43.320Z,71.20
2019-02-15T09:16:12.038Z,67.80
2019-02-15T09:18:40.616Z,65.20
2019-02-15T09:21:09.195Z,61.20
2019-02-15T09:23:37.532Z,60.00
2019-02-15T09:26:05.926Z,59.70
2019-02-15T09:28:39.375Z,58.90
2019-02-15T09:31:07.863Z,58.30
2019-02-15T09:33:36.224Z,56.20
2019-02-15T09:36:05.391Z,55.10
2019-02-15T09:38:33.682Z,54.30
2019-02-15T09:41:02.022Z,54.00
2019-02-15T09:43:30.325Z,53.40
2019-02-15T09:45:58.721Z,52.60
2019-02-15T09:48:27.120Z,53.30
2019-02-15T09:50:55.516Z,51.70
2019-02-15T09:53:23.961Z,51.00
2019-02-15T09:55:52.372Z,49.40
2019-02-15T09:58:20.754Z,49.40
2019-02-15T10:00:49.260Z,47.90
2019-02-15T10:03:17.706Z,48.00
2019-02-15T10:05:46.155Z,46.70
2019-02-15T10:08:14.571Z,48.40
2019-02-15T10:10:43.017Z,47.30
2019-02-15T10:13:11.442Z,48.90
2019-02-15T10:15:39.905Z,46.70
2019-02-15T10:18:08.318Z,45.80
2019-02-15T10:20:36.905Z,45.90
2019-02-15T10:23:05.435Z,45.80
2019-02-15T10:25:33.844Z,46.80
2019-02-15T10:28:02.315Z,47.70
2019-02-15T10:30:30.672Z,47.50
2019-02-15T10:32:59.037Z,49.70
2019-02-15T10:35:27.461Z,51.80
2019-02-15T10:37:55.892Z,51.00
2019-02-15T10:40:24.332Z,50.50
2019-02-15T10:42:57.279Z,50.40
2019-02-15T10:45:25.885Z,51.60
2019-02-15T10:47:54.306Z,52.70
2019-02-15T10:50:22.722Z,52.90
2019-02-15T10:52:51.015Z,53.60
2019-02-15T10:55:19.397Z,56.30
2019-02-15T10:57:48.032Z,55.10
2019-02-15T11:00:20.006Z,54.60
2019-02-15T11:02:48.564Z,54.40
2019-02-15T11:05:17.482Z,55.00
2019-02-15T11:07:45.969Z,55.90
2019-02-15T11:10:14.368Z,55.30
2019-02-15T11:12:42.772Z,56.10
2019-02-15T11:15:15.743Z,54.90
2019-02-15T11:17:44.065Z,54.10
2019-02-15T11:20:14.825Z,54.40
2019-02-15T11:22:43.142Z,50.90
2019-02-15T11:25:13.218Z,51.60
2019-02-15T11:27:41.733Z,50.90
2019-02-15T11:30:14.594Z,50.70
2019-02-15T11:32:42.893Z,48.50
2019-02-15T11:35:14.971Z,46.90
2019-02-15T11:37:43.365Z,47.30
2019-02-15T11:40:15.128Z,42.90
2019-02-15T11:42:43.510Z,45.00
2019-02-15T11:45:15.401Z,42.90
2019-02-15T11:47:43.851Z,40.80
2019-02-15T11:50:13.050Z,38.70
2019-02-15T11:52:41.463Z,39.50
2019-02-15T11:55:10.876Z,39.20
2019-02-15T11:57:39.364Z,37.80
2019-02-15T12:00:14.198Z,36.80
2019-02-15T12:02:42.678Z,36.30
2019-02-15T12:05:11.072Z,35.20
2019-02-15T12:07:39.592Z,36.20
2019-02-15T12:10:10.050Z,35.30
2019-02-15T12:12:38.624Z,35.70
2019-02-15T12:15:08.726Z,37.00
2019-02-15T12:17:37.053Z,37.60
2019-02-15T12:20:11.322Z,37.70
2019-02-15T12:22:39.710Z,37.70
2019-02-15T12:25:08.449Z,37.40
2019-02-15T12:27:36.841Z,40.30
2019-02-15T12:30:13.049Z,38.40
2019-02-15T12:32:41.520Z,38.50
2019-02-15T12:35:10.646Z,37.60
2019-02-15T12:37:39.074Z,39.50
2019-02-15T12:40:09.713Z,39.00
2019-02-15T12:42:38.942Z,38.70
2019-02-15T12:45:10.114Z,39.10
2019-02-15T12:47:38.532Z,40.80
2019-02-15T12:50:10.146Z,38.20
2019-02-15T12:52:38.605Z,37.80
2019-02-15T12:55:07.199Z,38.00
2019-02-15T12:57:35.860Z,39.00
2019-02-15T13:00:09.388Z,38.10
2019-02-15T13:02:37.676Z,36.30
2019-02-15T13:05:07.994Z,37.40
2019-02-15T13:07:36.781Z,37.90
2019-02-15T13:10:08.935Z,39.50
2019-02-15T13:12:37.642Z,39.90
2019-02-15T13:15:08.147Z,41.30
2019-02-15T13:17:36.513Z,42.00
2019-02-15T13:20:07.094Z,42.70
2019-02-15T13:22:35.396Z,44.20
2019-02-15T13:25:04.722Z,42.10
2019-02-15T13:27:34.815Z,41.60
2019-02-15T13:30:03.499Z,40.20
2019-02-15T13:32:31.799Z,39.30
2019-02-15T13:35:03.690Z,37.70
2019-02-15T13:37:32.179Z,36.80
2019-02-15T13:40:00.619Z,36.10
2019-02-15T13:42:30.652Z,37.00
2019-02-15T13:45:01.148Z,37.20
2019-02-15T13:47:34.526Z,36.90
2019-02-15T13:49:59.639Z,38.90
2019-02-15T13:52:28.170Z,39.50
2019-02-15T13:54:56.884Z,38.00
2019-02-15T13:57:25.417Z,38.00
2019-02-15T13:59:53.777Z,39.70
2019-02-15T14:02:22.558Z,40.10
2019-02-15T14:04:50.997Z,41.50
2019-02-15T14:07:19.577Z,42.20
2019-02-15T14:09:48.025Z,43.60
2019-02-15T14:12:16.583Z,44.20
2019-02-15T14:14:45.093Z,43.70
2019-02-15T14:17:13.415Z,44.60
2019-02-15T14:19:41.707Z,42.80
2019-02-15T14:22:10.032Z,43.10
2019-02-15T14:24:38.670Z,42.90
2019-02-15T14:27:07.032Z,41.70
2019-02-15T14:29:35.421Z,41.70
2019-02-15T14:32:03.824Z,41.50
2019-02-15T14:34:32.121Z,41.10
2019-02-15T14:37:00.894Z,40.70
2019-02-15T14:39:29.334Z,40.50
2019-02-15T14:41:57.838Z,40.70
2019-02-15T14:44:26.372Z,40.50
2019-02-15T14:46:55.520Z,39.90
2019-02-15T14:49:23.921Z,39.70
2019-02-15T14:51:52.565Z,41.30
2019-02-15T14:54:20.967Z,40.90
2019-02-15T14:56:49.356Z,43.40
2019-02-15T14:59:17.735Z,42.20
2019-02-15T15:01:46.358Z,44.90
2019-02-15T15:04:14.682Z,43.60
2019-02-15T15:06:43.096Z,44.00
2019-02-15T15:09:11.432Z,44.90
2019-02-15T15:11:39.750Z,46.80
2019-02-15T15:14:09.529Z,47.40
2019-02-15T15:16:38.026Z,47.70
2019-02-15T15:19:06.401Z,47.20
2019-02-15T15:21:35.092Z,47.10
2019-02-15T15:24:03.713Z,47.80
2019-02-15T15:26:32.081Z,49.20
2019-02-15T15:29:00.433Z,48.90
2019-02-15T15:31:28.947Z,48.10
2019-02-15T15:33:57.342Z,50.10
2019-02-15T15:36:26.267Z,51.20
2019-02-15T15:38:54.762Z,51.80
2019-02-15T15:41:23.105Z,52.10
2019-02-15T15:43:51.586Z,53.00
2019-02-15T15:46:20.015Z,52.50
2019-02-15T15:48:48.379Z,53.50
2019-02-15T15:51:16.695Z,54.10
2019-02-15T15:53:45.044Z,56.00
2019-02-15T15:56:13.511Z,54.90
2019-02-15T15:58:42.028Z,56.40
2019-02-15T16:01:10.475Z,57.60
2019-02-15T16:03:38.953Z,57.50
2019-02-15T16:06:07.430Z,59.70
2019-02-15T16:08:35.721Z,57.90
2019-02-15T16:11:04.252Z,59.00
2019-02-15T16:13:32.626Z,62.00
2019-02-15T16:16:01.158Z,61.30
2019-02-15T16:18:34.648Z,61.50
2019-02-15T16:20:59.671Z,62.90
2019-02-15T16:23:28.041Z,63.20
2019-02-15T16:25:58.358Z,62.50
2019-02-15T16:28:26.707Z,64.50
2019-02-15T16:30:59.918Z,64.60
2019-02-15T16:33:31.963Z,65.30
2019-02-15T16:36:00.289Z,65.30
2019-02-15T16:38:28.760Z,67.10
2019-02-15T16:40:57.103Z,66.10
2019-02-15T16:43:25.499Z,66.10
2019-02-15T16:45:53.893Z,66.80
2019-02-15T16:48:22.397Z,66.70
2019-02-15T16:50:50.745Z,66.80
2019-02-15T16:53:19.370Z,67.30
2019-02-15T16:55:47.786Z,67.90
2019-02-15T16:58:16.352Z,69.00
2019-02-15T17:00:46.431Z,70.70
2019-02-15T17:03:15.075Z,69.80
2019-02-15T17:05:44.383Z,69.90
2019-02-15T17:08:12.781Z,70.00
2019-02-15T17:10:41.162Z,69.80
2019-02-15T17:13:09.487Z,69.70
2019-02-15T17:15:37.943Z,71.10
2019-02-15T17:18:06.341Z,72.50
2019-02-15T17:20:34.660Z,71.20
2019-02-15T17:23:03.114Z,71.30
2019-02-15T17:25:31.404Z,73.10
2019-02-15T17:27:59.852Z,74.20
2019-02-15T17:30:28.366Z,73.50
2019-02-15T17:32:56.707Z,71.80
2019-02-15T17:35:25.065Z,73.60
2019-02-15T17:37:55.166Z,73.80
2019-02-15T17:40:25.204Z,74.80
2019-02-15T17:42:53.671Z,74.80
2019-02-15T17:45:21.994Z,76.20
2019-02-15T17:47:50.292Z,75.70
2019-02-15T17:50:18.677Z,75.50
2019-02-15T17:52:47.019Z,75.50
2019-02-15T17:55:15.454Z,76.60
2019-02-15T17:57:43.821Z,76.80
2019-02-15T18:00:17.146Z,77.30
2019-02-15T18:02:45.702Z,77.90
2019-02-15T18:05:15.685Z,79.30
2019-02-15T18:07:45.180Z,80.30
2019-02-15T18:16:35.455Z,80.10
2019-02-15T18:19:09.792Z,80.70
2019-02-15T18:21:34.297Z,80.50
2019-02-15T18:24:02.611Z,81.60
2019-02-15T18:26:30.978Z,81.50
2019-02-15T18:28:59.371Z,81.70
2019-02-15T18:31:27.831Z,82.30
2019-02-15T18:33:56.186Z,81.10
2019-02-15T18:36:24.612Z,81.90
2019-02-15T18:38:53.090Z,82.00
2019-02-15T18:41:21.460Z,80.90
2019-02-15T18:43:49.789Z,81.70
2019-02-15T18:46:18.588Z,82.60
2019-02-15T18:48:47.095Z,82.20
2019-02-15T18:51:15.600Z,81.80
2019-02-15T18:53:44.062Z,82.30
2019-02-15T18:56:12.440Z,81.70
2019-02-15T18:58:40.856Z,84.00
2019-02-15T19:01:09.412Z,82.10
2019-02-15T19:03:38.031Z,82.60
2019-02-15T19:06:06.442Z,82.40
2019-02-15T19:08:35.126Z,83.10
2019-02-15T19:11:03.804Z,83.30
2019-02-15T19:13:32.308Z,83.00
2019-02-15T19:16:00.700Z,83.40
2019-02-15T19:18:29.267Z,84.30
2019-02-15T19:20:57.709Z,84.00
2019-02-15T19:23:26.144Z,82.80
2019-02-15T19:25:54.690Z,83.50
2019-02-15T19:28:23.166Z,83.30
2019-02-15T19:30:51.563Z,84.70
2019-02-15T19:33:20.078Z,84.00
2019-02-15T19:35:48.508Z,85.40
2019-02-15T19:38:17.216Z,85.00
2019-02-15T19:40:45.714Z,85.10
2019-02-15T19:43:14.146Z,85.60
2019-02-15T19:45:43.338Z,86.20
2019-02-15T19:48:11.824Z,85.80
2019-02-15T19:50:40.679Z,85.80
2019-02-15T19:53:09.055Z,87.50
2019-02-15T19:55:37.719Z,86.50
2019-02-15T19:58:06.442Z,87.00
2019-02-15T20:00:35.630Z,87.10
2019-02-15T20:03:04.225Z,87.00
2019-02-15T20:05:32.705Z,86.90
2019-02-15T20:08:10.861Z,87.10
2019-02-15T20:10:38.994Z,88.00
2019-02-15T20:13:07.503Z,87.40
2019-02-15T20:15:36.188Z,87.80
2019-02-15T20:18:04.679Z,88.80
2019-02-15T20:20:33.206Z,88.60
2019-02-15T20:23:01.890Z,86.50
2019-02-15T20:25:30.448Z,85.70
2019-02-15T20:27:59.184Z,85.30
2019-02-15T20:30:27.981Z,86.00
2019-02-15T20:32:57.296Z,84.80
2019-02-15T20:35:25.596Z,85.10
2019-02-15T20:37:54.179Z,85.00
2019-02-15T20:40:22.583Z,86.40
2019-02-15T20:42:51.223Z,87.50
2019-02-15T20:45:23.397Z,86.60
2019-02-15T20:47:52.044Z,87.00
2019-02-15T20:50:23.539Z,87.70
2019-02-15T20:52:52.120Z,87.90
2019-02-15T20:55:20.711Z,88.20
2019-02-15T20:57:49.266Z,88.30
2019-02-15T21:00:20.085Z,88.40
2019-02-15T21:02:48.657Z,90.00
2019-02-15T21:05:17.157Z,88.80
2019-02-15T21:07:45.688Z,88.70
2019-02-15T21:10:14.995Z,88.90
2019-02-15T21:12:43.521Z,89.00
2019-02-15T21:15:15.087Z,89.80
2019-02-15T21:17:43.645Z,89.70
2019-02-15T21:20:14.590Z,89.90
2019-02-15T21:22:43.148Z,89.80
2019-02-15T21:25:13.942Z,90.10
2019-02-15T21:27:42.515Z,90.10
2019-02-15T21:30:15.692Z,89.80
2019-02-15T21:32:44.153Z,90.20
2019-02-15T21:35:12.993Z,90.30
2019-02-15T21:37:41.471Z,90.20
2019-02-15T21:40:12.262Z,90.30
2019-02-15T21:42:40.891Z,90.30
2019-02-15T21:45:10.944Z,90.30
2019-02-15T21:47:39.500Z,90.50
2019-02-15T21:50:16.759Z,90.50
2019-02-15T21:52:44.028Z,91.10
2019-02-15T21:55:12.106Z,90.90
2019-02-15T21:57:40.834Z,90.60
2019-02-15T22:00:12.219Z,90.90
2019-02-15T22:02:40.849Z,90.90
2019-02-15T22:05:09.369Z,90.80
2019-02-15T22:07:38.016Z,91.20
2019-02-15T22:10:08.716Z,91.20
2019-02-15T22:12:37.128Z,91.40
2019-02-15T22:15:08.669Z,91.50
2019-02-15T22:17:37.106Z,91.30
2019-02-15T22:20:08.687Z,91.50
2019-02-15T22:22:37.542Z,91.80
2019-02-15T22:25:09.718Z,91.60
2019-02-15T22:27:39.792Z,91.90
2019-02-15T22:30:27.502Z,91.40
2019-02-15T22:32:56.169Z,91.70
2019-02-15T22:35:24.606Z,91.70
2019-02-15T22:37:53.580Z,91.60
2019-02-15T22:40:33.025Z,91.70
2019-02-15T22:43:13.320Z,91.80
2019-02-15T22:45:46.197Z,91.90
2019-02-15T22:48:14.585Z,92.00
2019-02-15T22:50:43.286Z,92.20
2019-02-15T22:53:11.785Z,92.20
2019-02-15T22:55:40.515Z,92.40
2019-02-15T22:58:09.005Z,92.40
2019-02-15T23:00:49.979Z,92.10
2019-02-15T23:03:22.043Z,92.10
2019-02-15T23:05:51.992Z,92.40
2019-02-15T23:08:20.548Z,92.30
2019-02-15T23:10:50.693Z,92.40
2019-02-15T23:13:20.948Z,92.20
2019-02-15T23:15:49.423Z,92.50
2019-02-15T23:18:19.160Z,92.40
2019-02-15T23:20:48.091Z,92.40
2019-02-15T23:23:16.864Z,92.60
2019-02-15T23:25:45.389Z,92.50
2019-02-15T23:28:13.734Z,92.90
2019-02-15T23:30:42.445Z,92.40
2019-02-15T23:33:11.021Z,92.50
2019-02-15T23:35:39.419Z,92.50
2019-02-15T23:38:07.981Z,92.40
2019-02-15T23:40:36.518Z,92.70
2019-02-15T23:43:04.910Z,92.60
2019-02-15T23:45:33.241Z,92.90
2019-02-15T23:48:01.550Z,92.70
2019-02-15T23:50:30.072Z,92.80
2019-02-15T23:52:58.651Z,92.90
2019-02-15T23:55:26.965Z,92.70
2019-02-15T23:57:55.353Z,92.90
